Turrell, Arkansas
Current Conditions -  °F | °C
As of 5:18 AM on Monday 20 Oct 2014 (Local Time) from KAWM Reporting Station
Haze Haze  
Wind Chill: 47°   Ceiling: NA
Heat Index: 47°   Visibility: 6mi
Dew Point: 47°   Wind: 0mph
Humidity: 100%   Direction: NA
Pressure: 30.06"   Gusts: NA
Location:  35.38°N, 90.26°W
Report Text: KAWM 201018Z AUTO 00000KT 6SM BR 08/08 A3006 RMK AO2 T00830083 $
Loading
Personal Weather Stations






























Interactive Weather Map
Tropical Storm Tracking
New forecast layout! Learn more

10-Day Weather Forecast

Advertisements
Track Severe Weather on mobile